Time;durP1;ratioP1;P1;durP2;ratioP2;P2;SDS_P1;SDS_P2;PMS_P1;PMS_P2;Temp;Humidity;BMP_temperature;BMP_pressure;BME280_temperature;BME280_humidity;BME280_pressure;Samples;Min_cycle;Max_cycle;Signal;HPM_P1;HPM_P2
2021/12/07 00:01:24;;;;;;;0.50;0.50;;;;;;;;;;5030833;28;20173;-64
2021/12/07 00:03:50;;;;;;;0.50;0.50;;;;;;;;;;5031246;28;20169;-66
2021/12/07 00:06:17;;;;;;;0.60;0.60;;;;;;;;;;5029825;28;20214;-65
2021/12/07 00:08:43;;;;;;;0.50;0.50;;;;;;;;;;5030974;28;20173;-65
2021/12/07 00:11:10;;;;;;;0.60;0.60;;;;;;;;;;5034478;28;20173;-65
2021/12/07 00:13:38;;;;;;;0.55;0.55;;;;;;;;;;5034804;28;20184;-66
2021/12/07 00:16:05;;;;;;;0.60;0.60;;;;;;;;;;5034426;28;20199;-66
2021/12/07 00:18:31;;;;;;;0.70;0.70;;;;;;;;;;5034596;28;20169;-66
2021/12/07 00:20:57;;;;;;;0.50;0.50;;;;;;;;;;5034243;28;20166;-65
2021/12/07 00:23:23;;;;;;;0.60;0.60;;;;;;;;;;5034319;28;20176;-66
2021/12/07 00:25:49;;;;;;;0.60;0.60;;;;;;;;;;5034382;28;20471;-66
2021/12/07 00:28:18;;;;;;;0.60;0.60;;;;;;;;;;5034328;28;20411;-65
2021/12/07 00:30:44;;;;;;;0.60;0.60;;;;;;;;;;5034204;28;20207;-66
2021/12/07 00:33:20;;;;;;;0.70;0.70;;;;;;;;;;5034222;28;20185;-65
2021/12/07 00:35:46;;;;;;;0.60;0.60;;;;;;;;;;5034097;28;20223;-66
2021/12/07 00:38:17;;;;;;;0.60;0.60;;;;;;;;;;5034050;28;20231;-66
2021/12/07 00:40:43;;;;;;;0.60;0.60;;;;;;;;;;5034009;28;20161;-67
2021/12/07 00:43:10;;;;;;;0.50;0.50;;;;;;;;;;5034119;28;20274;-67
2021/12/07 00:45:36;;;;;;;0.60;0.60;;;;;;;;;;5033897;28;20239;-66
2021/12/07 00:48:03;;;;;;;0.60;0.60;;;;;;;;;;5034023;28;20188;-66
2021/12/07 00:50:30;;;;;;;0.60;0.60;;;;;;;;;;5034044;28;20173;-66
2021/12/07 00:52:56;;;;;;;0.60;0.60;;;;;;;;;;5033889;28;20188;-66
2021/12/07 00:55:28;;;;;;;0.60;0.60;;;;;;;;;;5034019;28;20197;-66
2021/12/07 00:57:57;;;;;;;0.55;0.55;;;;;;;;;;5033839;28;20692;-66
2021/12/07 01:00:25;;;;;;;0.60;0.60;;;;;;;;;;5033597;28;20239;-66
2021/12/07 01:02:51;;;;;;;0.60;0.60;;;;;;;;;;5033690;28;20181;-66
2021/12/07 01:05:22;;;;;;;0.60;0.60;;;;;;;;;;5032237;28;20284;-65
2021/12/07 01:07:58;;;;;;;0.60;0.60;;;;;;;;;;5033849;28;20180;-65
2021/12/07 01:26:52;;;;;;;0.50;0.50;;;;;;;;;;5033631;28;20184;-66
2021/12/07 01:29:22;;;;;;;0.50;0.50;;;;;;;;;;5033184;28;20181;-65
2021/12/07 01:40:27;;;;;;;0.60;0.60;;;;;;;;;;5033213;28;20725;-63
2021/12/07 01:51:40;;;;;;;0.57;0.57;;;;;;;;;;5032871;28;20208;-65
2021/12/07 01:59:36;;;;;;;0.60;0.60;;;;;;;;;;5033062;28;20636;-66
2021/12/07 02:02:04;;;;;;;0.60;0.60;;;;;;;;;;5032815;28;20168;-67
2021/12/07 02:04:30;;;;;;;0.50;0.50;;;;;;;;;;5032315;28;20193;-66
2021/12/07 02:06:56;;;;;;;0.60;0.60;;;;;;;;;;5032554;28;20644;-65
2021/12/07 02:09:21;;;;;;;0.60;0.60;;;;;;;;;;5032409;28;20177;-66
2021/12/07 02:11:50;;;;;;;0.40;0.40;;;;;;;;;;5032285;28;20895;-65
2021/12/07 02:14:17;;;;;;;0.60;0.60;;;;;;;;;;5032194;28;20513;-65
2021/12/07 02:16:45;;;;;;;0.60;0.60;;;;;;;;;;5032224;28;20200;-66
2021/12/07 02:19:11;;;;;;;0.60;0.60;;;;;;;;;;5032263;28;20201;-67
2021/12/07 02:21:37;;;;;;;0.60;0.60;;;;;;;;;;5032152;28;20643;-66
2021/12/07 02:24:03;;;;;;;0.50;0.50;;;;;;;;;;5032074;28;20439;-65
2021/12/07 02:26:29;;;;;;;0.50;0.50;;;;;;;;;;5032191;28;20454;-64
2021/12/07 02:28:57;;;;;;;0.50;0.50;;;;;;;;;;5032072;28;20408;-65
2021/12/07 02:31:23;;;;;;;0.60;0.60;;;;;;;;;;5031325;28;20299;-65
2021/12/07 02:33:49;;;;;;;0.50;0.50;;;;;;;;;;5031035;28;20180;-65
2021/12/07 02:36:15;;;;;;;0.50;0.50;;;;;;;;;;5031781;28;20687;-65
2021/12/07 02:38:41;;;;;;;0.50;0.50;;;;;;;;;;5032097;28;20608;-66
2021/12/07 02:41:07;;;;;;;0.60;0.60;;;;;;;;;;5031668;28;20256;-66
2021/12/07 02:43:33;;;;;;;0.50;0.50;;;;;;;;;;5031915;28;20261;-66
2021/12/07 02:46:00;;;;;;;0.50;0.50;;;;;;;;;;5030487;28;20203;-65
2021/12/07 02:48:25;;;;;;;0.50;0.50;;;;;;;;;;5031798;28;20702;-65
2021/12/07 02:50:52;;;;;;;0.50;0.50;;;;;;;;;;5030219;28;20185;-65
2021/12/07 02:53:21;;;;;;;0.50;0.50;;;;;;;;;;5031724;28;20752;-66
2021/12/07 02:55:47;;;;;;;0.55;0.55;;;;;;;;;;5031680;28;20250;-65
2021/12/07 02:58:13;;;;;;;0.50;0.50;;;;;;;;;;5031586;28;20663;-65
2021/12/07 03:00:47;;;;;;;0.50;0.50;;;;;;;;;;5031690;28;20461;-65
2021/12/07 03:03:14;;;;;;;0.50;0.50;;;;;;;;;;5031646;28;20173;-66
2021/12/07 03:27:57;;;;;;;0.50;0.50;;;;;;;;;;5091630;28;20182;-65
2021/12/07 03:30:24;;;;;;;0.50;0.50;;;;;;;;;;5091208;28;20175;-65
2021/12/07 03:32:50;;;;;;;0.50;0.50;;;;;;;;;;5091523;28;20176;-65
2021/12/07 03:35:16;;;;;;;0.50;0.50;;;;;;;;;;5091349;28;20194;-65
2021/12/07 03:37:42;;;;;;;0.50;0.50;;;;;;;;;;5091269;28;20206;-65
2021/12/07 03:40:09;;;;;;;0.50;0.50;;;;;;;;;;5091258;28;20549;-65
2021/12/07 03:42:35;;;;;;;0.50;0.50;;;;;;;;;;5091456;28;20174;-65
2021/12/07 03:45:01;;;;;;;0.60;0.60;;;;;;;;;;5093284;28;20285;-65
2021/12/07 03:47:27;;;;;;;0.50;0.50;;;;;;;;;;5077209;28;20259;-66
2021/12/07 03:49:53;;;;;;;0.50;0.50;;;;;;;;;;5077213;28;20419;-64
2021/12/07 03:52:19;;;;;;;0.40;0.40;;;;;;;;;;5094948;28;20404;-65
2021/12/07 03:54:45;;;;;;;0.50;0.50;;;;;;;;;;5095194;28;20756;-65
2021/12/07 03:57:11;;;;;;;0.50;0.50;;;;;;;;;;5095232;28;20452;-65
2021/12/07 03:59:37;;;;;;;0.50;0.50;;;;;;;;;;5095296;28;20167;-64
2021/12/07 04:02:03;;;;;;;0.50;0.50;;;;;;;;;;5094795;28;20482;-64
2021/12/07 04:04:29;;;;;;;0.50;0.50;;;;;;;;;;5076549;28;20912;-64
2021/12/07 04:06:55;;;;;;;0.40;0.40;;;;;;;;;;5095077;28;20282;-64
2021/12/07 04:09:21;;;;;;;0.50;0.50;;;;;;;;;;5094898;28;20408;-65
2021/12/07 04:11:47;;;;;;;0.50;0.50;;;;;;;;;;5094627;28;20847;-65
2021/12/07 04:14:12;;;;;;;0.50;0.50;;;;;;;;;;5094764;28;20899;-65
2021/12/07 04:16:38;;;;;;;0.60;0.60;;;;;;;;;;5094512;28;20993;-65
2021/12/07 04:19:05;;;;;;;0.50;0.50;;;;;;;;;;5094588;28;20437;-65
2021/12/07 04:21:30;;;;;;;0.57;0.57;;;;;;;;;;5094415;28;20401;-65
2021/12/07 04:23:56;;;;;;;0.60;0.60;;;;;;;;;;5094552;28;20178;-65
2021/12/07 04:26:24;;;;;;;0.60;0.60;;;;;;;;;;5094482;28;20432;-65
2021/12/07 04:28:50;;;;;;;0.60;0.60;;;;;;;;;;5094474;28;20497;-65
2021/12/07 04:31:17;;;;;;;0.50;0.50;;;;;;;;;;5094250;28;20744;-65
2021/12/07 04:33:43;;;;;;;0.50;0.50;;;;;;;;;;5094337;28;20408;-65
2021/12/07 04:36:10;;;;;;;0.60;0.60;;;;;;;;;;5094189;28;20203;-64
2021/12/07 04:38:36;;;;;;;0.50;0.50;;;;;;;;;;5094308;28;20175;-64
2021/12/07 04:41:02;;;;;;;0.50;0.50;;;;;;;;;;5094105;28;20178;-65
2021/12/07 04:43:28;;;;;;;0.50;0.50;;;;;;;;;;5094202;28;20172;-65
2021/12/07 04:46:04;;;;;;;0.45;0.45;;;;;;;;;;5094139;28;20214;-65
2021/12/07 04:59:12;;;;;;;0.50;0.50;;;;;;;;;;5094267;28;20675;-66
2021/12/07 05:01:38;;;;;;;0.50;0.50;;;;;;;;;;5093593;28;20170;-65
2021/12/07 05:04:19;;;;;;;0.40;0.40;;;;;;;;;;5093785;28;20175;-65
2021/12/07 05:06:51;;;;;;;0.50;0.50;;;;;;;;;;5093695;28;20470;-64
2021/12/07 05:12:17;;;;;;;0.50;0.50;;;;;;;;;;5093569;28;20305;-65
2021/12/07 05:14:41;;;;;;;0.50;0.50;;;;;;;;;;5093524;28;20557;-65
2021/12/07 05:39:12;;;;;;;0.50;0.50;;;;;;;;;;5093222;28;20232;-65
2021/12/07 05:41:38;;;;;;;0.50;0.50;;;;;;;;;;5092852;28;20823;-65
2021/12/07 05:44:04;;;;;;;0.60;0.60;;;;;;;;;;5092967;28;20896;-65
2021/12/07 05:46:30;;;;;;;0.50;0.50;;;;;;;;;;5092830;28;20511;-65
2021/12/07 05:48:56;;;;;;;0.60;0.60;;;;;;;;;;5093006;28;20175;-65
2021/12/07 05:51:22;;;;;;;0.50;0.50;;;;;;;;;;5074478;28;20265;-65
2021/12/07 05:53:48;;;;;;;0.50;0.50;;;;;;;;;;5092939;28;20612;-65
2021/12/07 05:56:14;;;;;;;0.60;0.60;;;;;;;;;;5092686;28;20764;-65
2021/12/07 05:58:40;;;;;;;0.50;0.50;;;;;;;;;;5092615;28;20969;-65
2021/12/07 06:01:06;;;;;;;0.50;0.50;;;;;;;;;;5092328;28;20402;-65
2021/12/07 06:03:33;;;;;;;0.50;0.50;;;;;;;;;;5092514;28;20434;-65
2021/12/07 06:06:03;;;;;;;0.50;0.50;;;;;;;;;;5092612;28;20183;-65
2021/12/07 06:08:29;;;;;;;0.50;0.50;;;;;;;;;;5092461;28;20174;-65
2021/12/07 06:10:55;;;;;;;0.50;0.50;;;;;;;;;;5092345;28;20304;-66
2021/12/07 06:13:21;;;;;;;0.50;0.50;;;;;;;;;;5092488;28;20636;-65
2021/12/07 06:15:48;;;;;;;0.50;0.50;;;;;;;;;;5073899;28;20305;-65
2021/12/07 06:18:14;;;;;;;0.50;0.50;;;;;;;;;;5092525;28;20214;-65
2021/12/07 06:20:41;;;;;;;0.50;0.50;;;;;;;;;;5092121;28;20177;-65
2021/12/07 06:23:08;;;;;;;0.50;0.50;;;;;;;;;;5074159;28;20400;-65
2021/12/07 06:25:34;;;;;;;0.60;0.60;;;;;;;;;;5092210;28;20186;-65
2021/12/07 06:28:00;;;;;;;0.50;0.50;;;;;;;;;;5092144;28;20173;-66
2021/12/07 06:30:26;;;;;;;0.50;0.50;;;;;;;;;;5091939;28;20455;-65
2021/12/07 06:32:52;;;;;;;0.50;0.50;;;;;;;;;;5092190;28;20447;-65
2021/12/07 06:35:18;;;;;;;0.50;0.50;;;;;;;;;;5091991;28;20485;-65
2021/12/07 06:37:43;;;;;;;0.50;0.50;;;;;;;;;;5092038;28;20973;-65
2021/12/07 06:40:10;;;;;;;0.50;0.50;;;;;;;;;;5091822;28;20399;-65
2021/12/07 06:42:38;;;;;;;0.50;0.50;;;;;;;;;;5091904;28;20418;-65
2021/12/07 06:45:04;;;;;;;0.50;0.50;;;;;;;;;;5092072;28;20201;-65
2021/12/07 06:47:30;;;;;;;0.50;0.50;;;;;;;;;;5091919;28;20655;-65
2021/12/07 06:49:56;;;;;;;0.50;0.50;;;;;;;;;;5091875;28;20283;-65
2021/12/07 06:52:22;;;;;;;0.50;0.50;;;;;;;;;;5091695;28;20414;-65
2021/12/07 06:54:48;;;;;;;0.50;0.50;;;;;;;;;;5091681;28;20447;-66
2021/12/07 06:57:14;;;;;;;0.50;0.50;;;;;;;;;;5091533;28;20232;-65
2021/12/07 06:59:40;;;;;;;0.50;0.50;;;;;;;;;;5091572;28;20171;-65
2021/12/07 07:02:06;;;;;;;0.50;0.50;;;;;;;;;;5091347;28;20957;-65
2021/12/07 07:04:32;;;;;;;0.60;0.60;;;;;;;;;;5091577;28;20881;-65
2021/12/07 07:06:58;;;;;;;0.60;0.60;;;;;;;;;;5073515;28;20203;-65
2021/12/07 07:09:24;;;;;;;0.60;0.60;;;;;;;;;;5091721;28;20175;-66
2021/12/07 07:11:50;;;;;;;0.57;0.57;;;;;;;;;;5091270;28;20414;-65
2021/12/07 07:14:16;;;;;;;0.50;0.50;;;;;;;;;;5091654;28;20409;-65
2021/12/07 07:16:42;;;;;;;0.50;0.50;;;;;;;;;;5091457;28;20993;-65
2021/12/07 07:19:08;;;;;;;0.50;0.50;;;;;;;;;;5092240;28;20202;-66
2021/12/07 07:21:34;;;;;;;0.60;0.60;;;;;;;;;;5095632;28;20225;-65
2021/12/07 07:24:00;;;;;;;0.60;0.60;;;;;;;;;;5095718;28;20402;-66
2021/12/07 07:26:26;;;;;;;0.50;0.50;;;;;;;;;;5095546;28;20611;-65
2021/12/07 07:28:52;;;;;;;0.50;0.50;;;;;;;;;;5077412;28;20416;-65
2021/12/07 07:31:18;;;;;;;0.60;0.60;;;;;;;;;;5095427;28;20418;-65
2021/12/07 07:33:44;;;;;;;0.50;0.50;;;;;;;;;;5076976;28;20178;-65
2021/12/07 07:36:10;;;;;;;0.50;0.50;;;;;;;;;;5095321;28;20203;-65
2021/12/07 07:38:36;;;;;;;0.50;0.50;;;;;;;;;;5095415;28;20388;-65
2021/12/07 07:41:02;;;;;;;0.40;0.40;;;;;;;;;;5095185;28;20538;-66
2021/12/07 07:43:29;;;;;;;0.60;0.60;;;;;;;;;;5095301;28;20398;-65
2021/12/07 07:45:55;;;;;;;0.50;0.50;;;;;;;;;;5095310;28;20240;-65
2021/12/07 07:48:22;;;;;;;0.50;0.50;;;;;;;;;;5095175;28;20180;-66
2021/12/07 07:50:50;;;;;;;0.50;0.50;;;;;;;;;;5095043;28;20254;-65
2021/12/07 07:53:16;;;;;;;0.50;0.50;;;;;;;;;;5077022;28;20212;-66
2021/12/07 07:55:42;;;;;;;0.50;0.50;;;;;;;;;;5094871;28;20796;-66
2021/12/07 07:58:09;;;;;;;0.50;0.50;;;;;;;;;;5094900;28;20192;-65
2021/12/07 08:00:35;;;;;;;0.50;0.50;;;;;;;;;;5094686;28;20182;-65
2021/12/07 08:03:01;;;;;;;0.50;0.50;;;;;;;;;;5095049;28;20648;-65
2021/12/07 08:05:27;;;;;;;0.50;0.50;;;;;;;;;;5094692;28;20234;-66
2021/12/07 08:07:53;;;;;;;0.50;0.50;;;;;;;;;;5094822;28;20187;-65
2021/12/07 08:10:21;;;;;;;0.60;0.60;;;;;;;;;;5094622;28;20177;-65
2021/12/07 08:12:48;;;;;;;0.50;0.50;;;;;;;;;;5094889;28;20853;-65
2021/12/07 08:15:14;;;;;;;0.50;0.50;;;;;;;;;;5094465;28;20287;-66
2021/12/07 08:17:40;;;;;;;0.50;0.50;;;;;;;;;;5094569;28;20200;-66
2021/12/07 08:20:07;;;;;;;0.50;0.50;;;;;;;;;;5094379;28;20170;-65
2021/12/07 08:22:33;;;;;;;0.50;0.50;;;;;;;;;;5094551;28;20407;-65
2021/12/07 08:24:59;;;;;;;0.50;0.50;;;;;;;;;;5094307;28;20196;-65
2021/12/07 08:27:25;;;;;;;0.50;0.50;;;;;;;;;;5094490;28;20541;-65
2021/12/07 08:29:51;;;;;;;0.50;0.50;;;;;;;;;;5094280;28;20728;-65
2021/12/07 08:32:17;;;;;;;0.60;0.60;;;;;;;;;;5092873;28;20258;-65
2021/12/07 08:34:43;;;;;;;0.50;0.50;;;;;;;;;;5094147;28;20229;-65
2021/12/07 08:37:10;;;;;;;0.50;0.50;;;;;;;;;;5094203;28;20211;-65
2021/12/07 08:39:37;;;;;;;0.50;0.50;;;;;;;;;;5076070;28;20793;-66
2021/12/07 08:42:03;;;;;;;0.50;0.50;;;;;;;;;;5094054;28;20160;-65
2021/12/07 08:44:29;;;;;;;0.40;0.40;;;;;;;;;;5094202;28;20168;-65
2021/12/07 08:46:55;;;;;;;0.50;0.50;;;;;;;;;;5094082;28;20298;-65
2021/12/07 08:49:21;;;;;;;0.50;0.50;;;;;;;;;;5094070;28;20408;-65
2021/12/07 08:51:47;;;;;;;0.50;0.50;;;;;;;;;;5093819;28;20449;-65
2021/12/07 08:59:48;;;;;;;0.50;0.50;;;;;;;;;;5093800;28;20189;-65
2021/12/07 09:02:18;;;;;;;0.50;0.50;;;;;;;;;;5093685;28;20190;-65
2021/12/07 09:04:45;;;;;;;0.50;0.50;;;;;;;;;;5093639;28;20177;-65
2021/12/07 09:07:12;;;;;;;0.50;0.50;;;;;;;;;;5093835;28;20193;-65
2021/12/07 09:09:38;;;;;;;0.50;0.50;;;;;;;;;;5093607;28;20172;-65
2021/12/07 09:12:07;;;;;;;0.50;0.50;;;;;;;;;;5093298;28;20179;-66
2021/12/07 09:14:34;;;;;;;0.50;0.50;;;;;;;;;;5093558;28;20253;-66
2021/12/07 09:17:01;;;;;;;0.50;0.50;;;;;;;;;;5114785;22;20236;-65
2021/12/07 09:19:27;;;;;;;0.50;0.50;;;;;;;;;;5093339;28;20183;-64
2021/12/07 09:21:53;;;;;;;0.50;0.50;;;;;;;;;;5093340;28;20169;-65
2021/12/07 09:24:19;;;;;;;0.50;0.50;;;;;;;;;;5093554;28;20399;-65
2021/12/07 09:26:45;;;;;;;0.50;0.50;;;;;;;;;;5093486;28;20692;-65
2021/12/07 09:29:11;;;;;;;0.50;0.50;;;;;;;;;;5093450;28;20195;-65
2021/12/07 09:31:37;;;;;;;0.50;0.50;;;;;;;;;;5093128;28;20207;-65
2021/12/07 09:34:04;;;;;;;0.50;0.50;;;;;;;;;;5093266;28;20661;-65
2021/12/07 09:36:31;;;;;;;0.40;0.40;;;;;;;;;;5093382;28;20479;-64
2021/12/07 09:38:57;;;;;;;0.40;0.40;;;;;;;;;;5095558;28;20601;-65
2021/12/07 09:41:23;;;;;;;0.50;0.50;;;;;;;;;;5093498;28;20209;-65
2021/12/07 09:43:52;;;;;;;0.40;0.40;;;;;;;;;;5093332;28;20201;-65
2021/12/07 09:46:18;;;;;;;0.50;0.50;;;;;;;;;;5093919;28;20436;-65
2021/12/07 09:48:45;;;;;;;0.50;0.50;;;;;;;;;;5093515;28;20635;-65
2021/12/07 09:51:12;;;;;;;0.50;0.50;;;;;;;;;;5074762;28;20575;-64
2021/12/07 09:53:38;;;;;;;0.50;0.50;;;;;;;;;;5092905;28;20816;-65
2021/12/07 09:56:05;;;;;;;0.50;0.50;;;;;;;;;;5096874;28;20193;-65
2021/12/07 09:58:31;;;;;;;0.50;0.50;;;;;;;;;;5092828;28;20225;-64
2021/12/07 10:00:57;;;;;;;0.40;0.40;;;;;;;;;;5092691;28;20254;-65
2021/12/07 10:03:24;;;;;;;0.50;0.50;;;;;;;;;;5092589;28;20198;-65
2021/12/07 10:05:50;;;;;;;0.52;0.52;;;;;;;;;;5074365;28;20240;-65
2021/12/07 10:08:17;;;;;;;0.45;0.45;;;;;;;;;;5092691;28;20192;-65
2021/12/07 10:10:45;;;;;;;0.60;0.60;;;;;;;;;;5092393;28;20185;-65
2021/12/07 10:13:11;;;;;;;0.50;0.50;;;;;;;;;;5092568;28;20271;-65
2021/12/07 10:15:38;;;;;;;0.60;0.60;;;;;;;;;;5092226;28;20205;-65
2021/12/07 10:18:15;;;;;;;0.50;0.50;;;;;;;;;;5092315;28;20672;-65
2021/12/07 10:20:45;;;;;;;0.50;0.50;;;;;;;;;;5092038;28;20243;-65
2021/12/07 10:23:15;;;;;;;0.50;0.50;;;;;;;;;;5092344;28;20185;-64
2021/12/07 10:25:43;;;;;;;0.50;0.50;;;;;;;;;;5092137;28;20225;-65
2021/12/07 10:28:29;;;;;;;0.40;0.40;;;;;;;;;;5092329;28;20705;-65
2021/12/07 10:30:55;;;;;;;0.50;0.50;;;;;;;;;;5073738;28;20268;-65
2021/12/07 10:33:33;;;;;;;0.50;0.50;;;;;;;;;;5092228;28;20260;-65
2021/12/07 10:36:10;;;;;;;0.50;0.50;;;;;;;;;;5092136;28;20199;-65
2021/12/07 10:38:37;;;;;;;0.50;0.50;;;;;;;;;;5091977;28;20211;-65
2021/12/07 10:41:08;;;;;;;0.50;0.50;;;;;;;;;;5091900;28;20169;-65
2021/12/07 10:43:39;;;;;;;0.50;0.50;;;;;;;;;;5092164;28;20533;-65
2021/12/07 10:46:25;;;;;;;0.50;0.50;;;;;;;;;;5091892;28;20198;-65
2021/12/07 10:48:51;;;;;;;0.50;0.50;;;;;;;;;;5091763;28;20175;-65
2021/12/07 10:51:17;;;;;;;0.60;0.60;;;;;;;;;;5091773;28;20251;-65
2021/12/07 10:53:53;;;;;;;0.50;0.50;;;;;;;;;;5091329;28;20209;-65
2021/12/07 10:56:32;;;;;;;0.50;0.50;;;;;;;;;;5091743;28;20431;-65
2021/12/07 10:59:08;;;;;;;0.50;0.50;;;;;;;;;;5091861;28;20188;-65
2021/12/07 11:01:39;;;;;;;0.50;0.50;;;;;;;;;;5091397;28;20203;-65
2021/12/07 11:04:24;;;;;;;0.50;0.50;;;;;;;;;;5091694;28;20172;-65
2021/12/07 11:07:07;;;;;;;0.47;0.47;;;;;;;;;;5091608;28;20284;-65
2021/12/07 11:09:42;;;;;;;0.45;0.45;;;;;;;;;;5091678;28;20196;-65
2021/12/07 11:12:09;;;;;;;0.50;0.50;;;;;;;;;;5091391;28;20177;-65
2021/12/07 11:14:53;;;;;;;0.50;0.50;;;;;;;;;;5091617;28;20174;-65
2021/12/07 11:17:23;;;;;;;0.40;0.40;;;;;;;;;;5091334;28;20217;-65
2021/12/07 11:19:50;;;;;;;0.50;0.50;;;;;;;;;;5091426;28;20190;-65
2021/12/07 11:22:17;;;;;;;0.40;0.40;;;;;;;;;;5091129;28;20205;-66
2021/12/07 11:24:44;;;;;;;0.40;0.40;;;;;;;;;;5091535;28;20633;-65
2021/12/07 11:30:19;;;;;;;0.50;0.50;;;;;;;;;;5091664;28;20619;-65
2021/12/07 11:32:49;;;;;;;0.40;0.40;;;;;;;;;;5078345;28;20201;-65
2021/12/07 11:35:21;;;;;;;0.40;0.40;;;;;;;;;;5091284;28;20177;-65
2021/12/07 11:37:48;;;;;;;0.40;0.40;;;;;;;;;;5091342;28;20285;-66
2021/12/07 11:40:17;;;;;;;0.30;0.30;;;;;;;;;;5091238;28;20409;-65
2021/12/07 11:42:43;;;;;;;0.40;0.40;;;;;;;;;;5091425;28;20745;-65
2021/12/07 11:45:17;;;;;;;0.40;0.40;;;;;;;;;;5091152;28;20367;-65
2021/12/07 11:47:48;;;;;;;0.40;0.40;;;;;;;;;;5091286;28;20401;-65
2021/12/07 11:50:17;;;;;;;0.40;0.40;;;;;;;;;;5091069;28;20182;-65
2021/12/07 11:52:44;;;;;;;0.40;0.40;;;;;;;;;;5091217;28;20174;-65
2021/12/07 11:55:10;;;;;;;0.40;0.40;;;;;;;;;;5091060;28;20638;-64
2021/12/07 11:57:36;;;;;;;0.40;0.40;;;;;;;;;;5091067;28;20600;-65
2021/12/07 12:00:05;;;;;;;0.40;0.40;;;;;;;;;;5090906;28;20171;-65
2021/12/07 12:02:31;;;;;;;0.40;0.40;;;;;;;;;;5091084;28;20170;-64
2021/12/07 12:04:57;;;;;;;0.50;0.50;;;;;;;;;;5090855;28;20188;-64
2021/12/07 12:07:22;;;;;;;0.40;0.40;;;;;;;;;;5094641;28;20198;-64
2021/12/07 12:09:51;;;;;;;0.50;0.50;;;;;;;;;;5094732;28;20410;-65
2021/12/07 12:12:25;;;;;;;0.50;0.50;;;;;;;;;;5094699;28;20914;-65
2021/12/07 12:15:11;;;;;;;0.40;0.40;;;;;;;;;;5094879;28;20194;-64
2021/12/07 12:17:41;;;;;;;0.40;0.40;;;;;;;;;;5093559;28;20198;-65
2021/12/07 12:20:13;;;;;;;0.40;0.40;;;;;;;;;;5093211;28;20171;-65
2021/12/07 12:22:45;;;;;;;0.40;0.40;;;;;;;;;;5093081;28;20248;-64
2021/12/07 12:25:13;;;;;;;0.40;0.40;;;;;;;;;;5093196;28;20170;-64
2021/12/07 12:27:39;;;;;;;0.40;0.40;;;;;;;;;;5093379;28;20593;-65
2021/12/07 12:30:27;;;;;;;0.40;0.40;;;;;;;;;;5092990;28;20182;-65
2021/12/07 12:33:01;;;;;;;0.40;0.40;;;;;;;;;;5071048;28;20185;-65
2021/12/07 12:35:30;;;;;;;0.40;0.40;;;;;;;;;;5092347;28;20202;-64
2021/12/07 12:37:57;;;;;;;0.50;0.50;;;;;;;;;;5092856;28;20190;-64
2021/12/07 12:40:27;;;;;;;0.40;0.40;;;;;;;;;;5093114;28;20174;-65
2021/12/07 12:42:54;;;;;;;0.50;0.50;;;;;;;;;;5093052;28;20259;-65
2021/12/07 12:45:35;;;;;;;0.40;0.40;;;;;;;;;;5092822;28;20937;-64
2021/12/07 12:48:03;;;;;;;0.50;0.50;;;;;;;;;;5092712;28;20186;-65
2021/12/07 12:50:37;;;;;;;0.50;0.50;;;;;;;;;;5092779;28;20174;-66
2021/12/07 12:53:03;;;;;;;0.50;0.50;;;;;;;;;;5093077;28;20178;-66
2021/12/07 12:55:40;;;;;;;0.50;0.50;;;;;;;;;;5092885;28;20195;-66
2021/12/07 12:58:11;;;;;;;0.40;0.40;;;;;;;;;;5092417;28;20463;-64
2021/12/07 13:01:01;;;;;;;0.50;0.50;;;;;;;;;;5092614;28;20212;-64
2021/12/07 13:03:44;;;;;;;0.40;0.40;;;;;;;;;;5093015;28;20672;-63
2021/12/07 13:06:14;;;;;;;0.43;0.43;;;;;;;;;;5097329;28;20194;-64
2021/12/07 13:08:58;;;;;;;0.50;0.50;;;;;;;;;;5092585;28;20173;-64
2021/12/07 13:11:36;;;;;;;0.40;0.40;;;;;;;;;;5093483;28;20178;-64
2021/12/07 13:14:03;;;;;;;0.40;0.40;;;;;;;;;;5091525;28;20220;-66
2021/12/07 13:16:33;;;;;;;0.50;0.50;;;;;;;;;;5053600;28;1094067;-64
2021/12/07 13:19:07;;;;;;;0.40;0.40;;;;;;;;;;5093264;28;20197;-64
2021/12/07 13:21:37;;;;;;;0.50;0.50;;;;;;;;;;5092871;28;20181;-64
2021/12/07 13:24:04;;;;;;;0.40;0.40;;;;;;;;;;5075418;28;20174;-64
2021/12/07 13:26:35;;;;;;;0.50;0.50;;;;;;;;;;5075164;28;20282;-66
2021/12/07 13:29:07;;;;;;;0.40;0.40;;;;;;;;;;5093481;28;20197;-66
2021/12/07 13:31:38;;;;;;;0.50;0.50;;;;;;;;;;5074331;28;20265;-64
2021/12/07 13:34:05;;;;;;;0.40;0.40;;;;;;;;;;5093048;28;20230;-64
2021/12/07 13:36:31;;;;;;;0.50;0.50;;;;;;;;;;5093017;28;20262;-64
2021/12/07 13:39:21;;;;;;;0.50;0.50;;;;;;;;;;5093344;28;20653;-64
2021/12/07 13:41:47;;;;;;;0.40;0.40;;;;;;;;;;5080360;28;20439;-64
2021/12/07 13:44:13;;;;;;;0.50;0.50;;;;;;;;;;5092709;28;20641;-64
2021/12/07 13:46:39;;;;;;;0.50;0.50;;;;;;;;;;5092804;28;20930;-64
2021/12/07 13:49:08;;;;;;;0.50;0.50;;;;;;;;;;5092656;28;20186;-64
2021/12/07 13:51:34;;;;;;;0.40;0.40;;;;;;;;;;5092622;28;20174;-64
2021/12/07 13:54:01;;;;;;;0.40;0.40;;;;;;;;;;5092315;28;20170;-64
2021/12/07 13:56:27;;;;;;;0.50;0.50;;;;;;;;;;5092660;28;20296;-64
2021/12/07 13:58:55;;;;;;;0.50;0.50;;;;;;;;;;5092859;28;20173;-64
2021/12/07 14:01:22;;;;;;;0.50;0.50;;;;;;;;;;5092704;28;20185;-64
2021/12/07 14:03:48;;;;;;;0.43;0.43;;;;;;;;;;5092733;28;20170;-66
2021/12/07 14:06:14;;;;;;;0.45;0.45;;;;;;;;;;5092086;28;20233;-64
2021/12/07 14:08:40;;;;;;;0.50;0.50;;;;;;;;;;5092563;28;20514;-65
2021/12/07 14:11:06;;;;;;;0.60;0.60;;;;;;;;;;5092384;28;20415;-64
2021/12/07 14:13:33;;;;;;;0.47;0.47;;;;;;;;;;5092509;28;20420;-65
2021/12/07 14:15:59;;;;;;;0.50;0.50;;;;;;;;;;5073646;28;20222;-66
2021/12/07 14:18:25;;;;;;;0.50;0.50;;;;;;;;;;5092542;28;20204;-66
2021/12/07 14:20:59;;;;;;;0.40;0.40;;;;;;;;;;5091736;28;20666;-66
2021/12/07 14:23:31;;;;;;;0.50;0.50;;;;;;;;;;5092219;28;20299;-66
2021/12/07 14:25:59;;;;;;;0.50;0.50;;;;;;;;;;5074067;28;20193;-66
2021/12/07 14:28:49;;;;;;;0.50;0.50;;;;;;;;;;5091672;28;20180;-66
2021/12/07 14:31:19;;;;;;;0.40;0.40;;;;;;;;;;5073807;28;20174;-66
2021/12/07 14:33:47;;;;;;;0.50;0.50;;;;;;;;;;5091866;28;20589;-65
2021/12/07 14:36:14;;;;;;;0.50;0.50;;;;;;;;;;5092010;28;20242;-65
2021/12/07 14:38:40;;;;;;;0.50;0.50;;;;;;;;;;5073092;28;20209;-65
2021/12/07 14:41:08;;;;;;;0.60;0.60;;;;;;;;;;5091921;28;20176;-65
2021/12/07 14:43:34;;;;;;;0.50;0.50;;;;;;;;;;5091930;28;20168;-65
2021/12/07 14:46:05;;;;;;;0.50;0.50;;;;;;;;;;5092263;28;20649;-65
2021/12/07 14:48:31;;;;;;;0.50;0.50;;;;;;;;;;5091903;28;20230;-65
2021/12/07 14:51:04;;;;;;;0.50;0.50;;;;;;;;;;5091481;28;20171;-65
2021/12/07 14:53:36;;;;;;;0.50;0.50;;;;;;;;;;5091502;28;20181;-66
2021/12/07 14:56:02;;;;;;;0.43;0.43;;;;;;;;;;5091940;28;20205;-65
2021/12/07 14:58:29;;;;;;;0.43;0.43;;;;;;;;;;5091830;28;20200;-65
2021/12/07 15:00:55;;;;;;;0.50;0.50;;;;;;;;;;5091130;28;20172;-65
2021/12/07 15:03:21;;;;;;;0.50;0.50;;;;;;;;;;5091852;28;20192;-65
2021/12/07 15:05:47;;;;;;;0.50;0.50;;;;;;;;;;5091678;28;20433;-65
2021/12/07 15:08:13;;;;;;;0.40;0.40;;;;;;;;;;5091817;28;20523;-68
2021/12/07 15:10:39;;;;;;;0.50;0.50;;;;;;;;;;5090474;28;20173;-65
2021/12/07 15:13:05;;;;;;;0.40;0.40;;;;;;;;;;5091300;28;20414;-65
2021/12/07 15:15:31;;;;;;;0.43;0.43;;;;;;;;;;5116228;22;20932;-63
2021/12/07 15:17:57;;;;;;;0.45;0.45;;;;;;;;;;5063714;28;20458;-66
2021/12/07 15:20:23;;;;;;;0.50;0.50;;;;;;;;;;5071038;28;20184;-66
2021/12/07 15:22:49;;;;;;;0.50;0.50;;;;;;;;;;5070911;28;20416;-67
2021/12/07 15:25:15;;;;;;;0.60;0.60;;;;;;;;;;5071330;28;20428;-67
2021/12/07 15:27:49;;;;;;;0.40;0.40;;;;;;;;;;5052574;28;21111;-66
2021/12/07 15:30:16;;;;;;;0.50;0.50;;;;;;;;;;5050990;28;20173;-66
2021/12/07 15:32:43;;;;;;;0.50;0.50;;;;;;;;;;5051301;28;20604;-66
2021/12/07 15:35:09;;;;;;;0.50;0.50;;;;;;;;;;5050668;28;20180;-66
2021/12/07 15:37:35;;;;;;;0.50;0.50;;;;;;;;;;5051049;28;20204;-63
2021/12/07 15:40:02;;;;;;;0.50;0.50;;;;;;;;;;5051604;28;20464;-66
2021/12/07 15:42:30;;;;;;;0.50;0.50;;;;;;;;;;5055155;28;20487;-67
2021/12/07 15:45:08;;;;;;;0.60;0.60;;;;;;;;;;5036554;28;20172;-67
2021/12/07 15:47:40;;;;;;;0.50;0.50;;;;;;;;;;5036879;28;20325;-66
2021/12/07 15:50:11;;;;;;;0.50;0.50;;;;;;;;;;5055119;28;20527;-66
2021/12/07 15:52:47;;;;;;;0.50;0.50;;;;;;;;;;5054987;28;20187;-66
2021/12/07 15:55:18;;;;;;;0.50;0.50;;;;;;;;;;5054649;28;20172;-66
2021/12/07 15:57:48;;;;;;;0.60;0.60;;;;;;;;;;5054021;28;20677;-66
2021/12/07 16:00:16;;;;;;;0.60;0.60;;;;;;;;;;5054484;28;20656;-66
2021/12/07 16:02:59;;;;;;;0.50;0.50;;;;;;;;;;5054743;28;20180;-66
2021/12/07 16:05:25;;;;;;;0.50;0.50;;;;;;;;;;5054669;28;20173;-67
2021/12/07 16:07:51;;;;;;;0.50;0.50;;;;;;;;;;5053888;28;20572;-66
2021/12/07 16:10:25;;;;;;;0.50;0.50;;;;;;;;;;5036270;28;20173;-67
2021/12/07 16:13:08;;;;;;;0.50;0.50;;;;;;;;;;5054580;28;20551;-67
2021/12/07 16:15:35;;;;;;;0.50;0.50;;;;;;;;;;5054389;28;20225;-66
2021/12/07 16:18:01;;;;;;;0.50;0.50;;;;;;;;;;5053808;28;20281;-66
2021/12/07 16:20:27;;;;;;;0.60;0.60;;;;;;;;;;5053841;28;20177;-66
2021/12/07 16:22:53;;;;;;;0.50;0.50;;;;;;;;;;5054229;28;20886;-66
2021/12/07 16:25:20;;;;;;;0.50;0.50;;;;;;;;;;5054289;28;20218;-67
2021/12/07 16:27:46;;;;;;;0.57;0.57;;;;;;;;;;5054243;28;20563;-66
2021/12/07 16:30:13;;;;;;;0.50;0.50;;;;;;;;;;5053179;28;20670;-65
2021/12/07 16:32:39;;;;;;;0.50;0.50;;;;;;;;;;5054138;28;20191;-66
2021/12/07 16:35:06;;;;;;;0.57;0.57;;;;;;;;;;5036300;28;20210;-66